aviador You're here:

PABE Decoded Metar

BETHEL in AK, USA
Report Time2018-07-20 07:53:00
UTC Time2018-07-20 09:00:26
Flight Rules Old
Wind010° at 07 kt
W.Decomp.*RWY 01: 6.8 kt HW 1.7 kt LCW
RWY 30: 3.9 kt HW 5.8 kt RCW
W.Rank010° ranks 3
Current wind is below 010° avg. (9.6)
Visibility9999 m
Phenomena:N/A
Clouds:N/A
Expected CloudBase > 800 ft AGL from Temp-Dew spread
CeilingNone
Temp13°C (ISA -2)
Dew Point11°C (88% RH)
AAT10.8°C
QNH1023 hPa
Density Alt-233 ft
Elevation135 ft
Report Wrong Elevation
Raw Report
PABE 200753Z 01007KT 10SM CLR 13/11 A3022 RMK AO2 SLP235
T01330106=

Extra information for PABE:More info

Metar Taf Metar & Taf Last 4 Metars F.Rules Stats Wind Profile Meteogram Temp Stats Airport Information Weather charts Add Link Nearby VenuesMetar ALERT Operation Metar Decoded Social comments

AIRNAV info for PABE